createdAt,value
2022-12-23T00:02:17.835Z,26.13
2022-12-23T00:04:46.974Z,23.55
2022-12-23T00:07:42.843Z,25.13
2022-12-23T00:10:13.868Z,28.77
2022-12-23T00:13:00.440Z,23.75
2022-12-23T00:15:27.720Z,25.08
2022-12-23T00:17:55.925Z,22.02
2022-12-23T00:20:24.004Z,23.67
2022-12-23T00:23:11.907Z,21.30
2022-12-23T00:25:42.249Z,22.05
2022-12-23T00:28:23.233Z,25.70
2022-12-23T00:31:13.437Z,24.52
2022-12-23T00:33:46.914Z,28.10
2022-12-23T00:36:28.000Z,23.90
2022-12-23T00:39:15.869Z,25.98
2022-12-23T00:42:02.420Z,22.63
2022-12-23T00:44:29.991Z,24.08
2022-12-23T00:46:57.747Z,25.98
2022-12-23T00:49:44.181Z,24.42
2022-12-23T00:52:14.181Z,25.02
2022-12-23T00:54:41.940Z,22.15
2022-12-23T00:57:13.974Z,26.02
2022-12-23T00:59:41.726Z,23.05
2022-12-23T01:05:36.850Z,23.02
2022-12-23T01:08:12.060Z,24.15
2022-12-23T01:10:41.201Z,24.48
2022-12-23T01:13:14.712Z,24.73
2022-12-23T01:15:41.713Z,22.35
2022-12-23T01:18:09.736Z,25.38
2022-12-23T01:20:38.938Z,25.13
2022-12-23T01:23:06.508Z,25.63
2022-12-23T01:25:33.782Z,26.63
2022-12-23T01:31:17.752Z,24.52
2022-12-23T01:33:46.021Z,20.85
2022-12-23T01:36:13.793Z,24.25
2022-12-23T01:38:41.765Z,23.80
2022-12-23T01:41:41.862Z,23.58
2022-12-23T01:44:52.403Z,24.75
2022-12-23T01:47:25.910Z,23.48
2022-12-23T01:50:20.920Z,24.48
2022-12-23T01:52:54.818Z,21.08
2022-12-23T01:55:27.022Z,23.27
2022-12-23T01:57:56.600Z,21.85
2022-12-23T02:00:42.462Z,23.10
2022-12-23T02:03:28.423Z,23.13
2022-12-23T02:06:16.813Z,25.23
2022-12-23T02:09:02.199Z,22.23
2022-12-23T02:11:54.756Z,26.35
2022-12-23T02:15:05.317Z,28.52
2022-12-23T02:17:39.688Z,28.27
2022-12-23T02:20:48.692Z,26.65
2022-12-23T02:23:40.652Z,28.58
2022-12-23T02:29:22.173Z,30.33
2022-12-23T02:32:18.361Z,26.88
2022-12-23T02:35:02.204Z,25.13
2022-12-23T02:37:49.279Z,21.52
2022-12-23T02:41:08.238Z,25.63
2022-12-23T02:43:47.438Z,23.98
2022-12-23T02:46:38.489Z,24.67
2022-12-23T02:49:32.388Z,26.23
2022-12-23T02:52:05.039Z,33.08
2022-12-23T02:57:37.137Z,22.52
2022-12-23T03:00:07.083Z,25.63
2022-12-23T03:02:39.904Z,25.65
2022-12-23T03:05:25.571Z,27.13
2022-12-23T03:07:57.188Z,24.40
2022-12-23T03:10:48.053Z,20.73
2022-12-23T03:17:00.651Z,22.20
2022-12-23T03:19:48.829Z,27.15
2022-12-23T03:22:30.667Z,30.13
2022-12-23T03:25:03.886Z,31.60
2022-12-23T03:27:54.796Z,30.30
2022-12-23T03:30:23.580Z,28.85
2022-12-23T03:33:14.651Z,29.77
2022-12-23T03:35:57.256Z,26.33
2022-12-23T03:38:26.713Z,28.45
2022-12-23T03:41:00.832Z,28.08
2022-12-23T03:43:33.300Z,26.73
2022-12-23T03:46:08.054Z,26.17
2022-12-23T03:48:40.587Z,27.08
2022-12-23T03:51:27.441Z,27.67
2022-12-23T03:54:03.401Z,24.10
2022-12-23T03:56:36.509Z,25.83
2022-12-23T03:59:17.148Z,22.05
2022-12-23T04:05:19.340Z,27.98
2022-12-23T04:10:52.531Z,27.90
2022-12-23T04:13:27.405Z,26.88
2022-12-23T04:15:58.440Z,31.33
2022-12-23T04:18:26.029Z,27.88
2022-12-23T04:20:53.837Z,32.28
2022-12-23T04:23:26.807Z,24.27
2022-12-23T04:25:58.767Z,27.90
2022-12-23T04:28:25.735Z,24.45
2022-12-23T04:30:53.877Z,24.15
2022-12-23T04:34:12.487Z,26.23
2022-12-23T04:36:39.836Z,29.67
2022-12-23T04:39:07.809Z,26.77
2022-12-23T04:41:35.744Z,30.58
2022-12-23T04:44:03.769Z,32.20
2022-12-23T04:46:31.785Z,30.20
2022-12-23T04:48:59.753Z,34.00
2022-12-23T04:54:19.769Z,30.83
2022-12-23T04:56:52.823Z,29.67
2022-12-23T04:59:24.851Z,32.88
2022-12-23T05:01:56.996Z,31.67
2022-12-23T05:04:29.957Z,28.67
2022-12-23T05:07:02.778Z,26.58
2022-12-23T05:09:29.730Z,27.35
2022-12-23T05:11:57.752Z,31.10
2022-12-23T05:17:43.723Z,27.40
2022-12-23T05:20:11.773Z,29.38
2022-12-23T05:22:48.755Z,30.13
2022-12-23T05:25:15.806Z,33.55
2022-12-23T05:27:43.765Z,27.90
2022-12-23T05:30:12.303Z,25.85
2022-12-23T05:32:39.763Z,31.48
2022-12-23T05:37:59.936Z,46.47
2022-12-23T05:40:29.287Z,47.75
2022-12-23T05:43:04.948Z,46.15
2022-12-23T05:45:35.531Z,53.03
2022-12-23T05:48:09.090Z,54.42
2022-12-23T05:51:01.746Z,55.17
2022-12-23T05:53:29.826Z,56.85
2022-12-23T05:55:57.734Z,52.30
2022-12-23T05:58:30.862Z,52.00
2022-12-23T06:00:57.789Z,50.05
2022-12-23T06:03:31.008Z,54.05
2022-12-23T06:06:04.861Z,52.97
2022-12-23T06:08:31.779Z,60.75
2022-12-23T06:11:00.351Z,54.28
2022-12-23T06:13:33.748Z,47.60
2022-12-23T06:16:01.812Z,54.13
2022-12-23T06:18:29.759Z,53.97
2022-12-23T06:20:57.870Z,40.17
2022-12-23T06:23:25.784Z,48.70
2022-12-23T06:28:51.823Z,45.95
2022-12-23T06:31:24.960Z,45.92
2022-12-23T06:33:51.700Z,40.78
2022-12-23T06:36:50.196Z,41.83
2022-12-23T06:39:17.748Z,46.85
2022-12-23T06:41:50.859Z,40.50
2022-12-23T06:44:18.142Z,42.45
2022-12-23T06:46:50.811Z,44.83
2022-12-23T06:49:17.736Z,48.60
2022-12-23T06:54:37.885Z,50.40
2022-12-23T06:57:05.947Z,46.35
2022-12-23T06:59:33.766Z,44.28
2022-12-23T07:04:57.760Z,43.95
2022-12-23T07:07:30.779Z,42.15
2022-12-23T07:09:57.728Z,43.33
2022-12-23T07:12:25.763Z,45.20
2022-12-23T07:14:53.886Z,40.25
2022-12-23T07:17:52.685Z,37.83
2022-12-23T07:20:19.983Z,45.67
2022-12-23T07:22:47.957Z,48.08
2022-12-23T07:25:16.343Z,51.00
2022-12-23T07:27:43.729Z,47.67
2022-12-23T07:30:11.888Z,48.05
2022-12-23T07:32:39.805Z,47.15
2022-12-23T07:35:08.061Z,47.55
2022-12-23T07:37:59.837Z,43.65
2022-12-23T07:40:28.068Z,41.40
2022-12-23T07:43:00.628Z,45.05
2022-12-23T07:45:29.310Z,45.97
2022-12-23T07:50:51.760Z,53.00
2022-12-23T07:53:43.859Z,42.92
2022-12-23T07:56:16.781Z,38.95
2022-12-23T07:58:51.414Z,38.17
2022-12-23T08:01:44.201Z,45.70
2022-12-23T08:04:38.388Z,44.90
2022-12-23T08:07:15.853Z,42.03
2022-12-23T08:09:43.723Z,46.95
2022-12-23T08:12:12.071Z,42.97
2022-12-23T08:14:39.743Z,41.03
2022-12-23T08:17:08.118Z,53.53
2022-12-23T08:20:01.757Z,49.40
2022-12-23T08:22:31.872Z,44.05
2022-12-23T08:24:59.886Z,46.45
2022-12-23T08:27:28.029Z,39.45
2022-12-23T08:29:55.945Z,41.45
2022-12-23T08:35:17.763Z,43.40
2022-12-23T08:40:40.953Z,38.97
2022-12-23T08:43:09.253Z,44.45
2022-12-23T08:45:38.705Z,44.63
2022-12-23T08:48:11.935Z,47.03
2022-12-23T08:50:41.223Z,46.55
2022-12-23T08:53:10.705Z,43.40
2022-12-23T08:55:39.823Z,41.05
2022-12-23T08:58:09.071Z,40.17
2022-12-23T09:04:03.621Z,41.15
2022-12-23T09:09:52.051Z,44.17
2022-12-23T09:12:20.459Z,47.20
2022-12-23T09:14:49.584Z,40.15
2022-12-23T09:17:17.877Z,41.03
2022-12-23T09:20:15.611Z,43.47
2022-12-23T09:22:43.730Z,48.83
2022-12-23T09:25:36.866Z,47.58
2022-12-23T09:28:09.429Z,46.55
2022-12-23T09:30:37.766Z,48.10
2022-12-23T09:33:05.719Z,40.17
2022-12-23T09:35:33.799Z,39.40
2022-12-23T09:38:01.736Z,35.22
2022-12-23T09:40:34.388Z,42.28
2022-12-23T09:43:31.283Z,42.15
2022-12-23T09:49:27.475Z,42.33
2022-12-23T09:52:02.690Z,36.85
2022-12-23T09:58:06.189Z,47.10
2022-12-23T10:00:42.722Z,46.30
2022-12-23T10:03:28.410Z,41.97
2022-12-23T10:06:03.052Z,37.78
2022-12-23T10:08:36.579Z,39.25
2022-12-23T10:11:22.066Z,51.10
2022-12-23T10:13:58.057Z,41.42
2022-12-23T10:16:50.539Z,48.78
2022-12-23T10:22:44.302Z,48.05
2022-12-23T10:25:44.877Z,42.63
2022-12-23T10:28:20.335Z,40.97
2022-12-23T10:31:41.216Z,45.78
2022-12-23T10:34:38.749Z,45.42
2022-12-23T10:37:45.039Z,41.58
2022-12-23T10:40:20.758Z,40.20
2022-12-23T10:43:21.310Z,49.17
2022-12-23T10:46:12.583Z,45.10
2022-12-23T10:51:54.753Z,43.15
2022-12-23T10:54:29.185Z,47.05
2022-12-23T10:56:58.149Z,45.85
2022-12-23T10:59:31.696Z,41.50
2022-12-23T11:02:12.310Z,38.53
2022-12-23T11:04:48.585Z,41.35
2022-12-23T11:10:20.709Z,42.30
2022-12-23T11:13:28.410Z,40.80
2022-12-23T11:16:28.144Z,38.85
2022-12-23T11:19:00.711Z,37.22
2022-12-23T11:21:53.280Z,37.30
2022-12-23T11:24:27.398Z,41.10
2022-12-23T11:27:02.753Z,41.58
2022-12-23T11:29:35.437Z,43.60
2022-12-23T11:32:16.329Z,38.67
2022-12-23T11:34:46.636Z,37.55
2022-12-23T11:37:35.020Z,40.17
2022-12-23T11:40:03.615Z,45.33
2022-12-23T11:42:36.090Z,41.95
2022-12-23T11:45:06.785Z,38.42
2022-12-23T11:47:41.723Z,44.70
2022-12-23T11:50:31.782Z,43.45
2022-12-23T11:53:27.647Z,34.63
2022-12-23T11:56:09.095Z,37.10
2022-12-23T11:58:53.370Z,39.13
2022-12-23T12:01:25.150Z,41.00
2022-12-23T12:04:01.085Z,42.97
2022-12-23T12:06:31.063Z,38.83
2022-12-23T12:09:02.035Z,33.70
2022-12-23T12:14:43.736Z,41.22
2022-12-23T12:17:33.187Z,35.88
2022-12-23T12:20:03.075Z,32.40
2022-12-23T12:22:53.132Z,41.75
2022-12-23T12:25:38.055Z,43.55
2022-12-23T12:28:13.604Z,41.25
2022-12-23T12:34:40.690Z,31.17
2022-12-23T12:37:36.873Z,44.83
2022-12-23T12:40:32.089Z,39.55
2022-12-23T12:43:20.884Z,39.80
2022-12-23T12:49:09.245Z,40.40
2022-12-23T12:51:57.191Z,35.38
2022-12-23T12:58:14.895Z,29.63
2022-12-23T13:01:09.863Z,22.63
2022-12-23T13:03:59.633Z,34.78
2022-12-23T13:06:42.051Z,33.10
2022-12-23T13:09:26.961Z,29.50
2022-12-23T13:12:06.838Z,33.10
2022-12-23T13:14:44.485Z,35.53
2022-12-23T13:18:10.377Z,30.35
2022-12-23T13:20:48.582Z,30.70
2022-12-23T13:23:42.818Z,23.67
2022-12-23T13:26:38.849Z,31.58
2022-12-23T13:29:27.012Z,29.05
2022-12-23T13:32:17.800Z,27.85
2022-12-23T13:35:05.834Z,26.55
2022-12-23T13:37:54.932Z,23.77
2022-12-23T13:40:40.340Z,28.35
2022-12-23T13:43:18.564Z,27.48
2022-12-23T13:45:47.326Z,24.02
2022-12-23T13:48:41.916Z,25.90
2022-12-23T13:51:15.147Z,23.05
2022-12-23T13:53:52.764Z,21.15
2022-12-23T13:56:38.659Z,23.98
2022-12-23T13:59:14.492Z,27.75
2022-12-23T14:01:41.703Z,19.38
2022-12-23T14:04:42.075Z,26.40
2022-12-23T14:07:21.838Z,29.48
2022-12-23T14:10:13.735Z,31.85
2022-12-23T14:12:55.898Z,32.35
2022-12-23T14:18:28.189Z,34.42
2022-12-23T14:21:21.680Z,36.63
2022-12-23T14:24:26.662Z,34.72
2022-12-23T14:27:25.391Z,37.00
2022-12-23T14:30:07.545Z,43.60
2022-12-23T14:32:59.553Z,40.58
2022-12-23T14:35:42.010Z,41.95
2022-12-23T14:41:50.592Z,47.78
2022-12-23T14:44:49.123Z,43.85
2022-12-23T14:47:31.501Z,41.42
2022-12-23T14:50:38.564Z,45.53
2022-12-23T14:53:23.386Z,38.00
2022-12-23T14:58:51.900Z,43.97
2022-12-23T15:01:31.458Z,44.40
2022-12-23T15:04:12.648Z,43.00
2022-12-23T15:06:43.049Z,38.50
2022-12-23T15:09:36.230Z,44.03
2022-12-23T15:12:14.724Z,36.50
2022-12-23T15:14:49.429Z,44.22
2022-12-23T15:17:28.653Z,52.22
2022-12-23T15:20:10.844Z,44.78
2022-12-23T15:25:46.078Z,34.83
2022-12-23T15:28:36.930Z,40.90
2022-12-23T15:31:05.782Z,42.13
2022-12-23T15:36:32.078Z,40.83
2022-12-23T15:39:18.238Z,40.50
2022-12-23T15:41:47.211Z,41.47
2022-12-23T15:44:23.190Z,36.38
2022-12-23T15:46:52.671Z,39.22
2022-12-23T15:49:25.728Z,39.78
2022-12-23T15:52:12.298Z,34.28
2022-12-23T15:54:54.553Z,34.88
2022-12-23T15:57:25.848Z,33.25
2022-12-23T15:59:59.121Z,34.72
2022-12-23T16:03:00.553Z,41.55
2022-12-23T16:05:41.240Z,32.58
2022-12-23T16:08:34.927Z,41.75
2022-12-23T16:11:06.899Z,36.88
2022-12-23T16:13:46.683Z,39.95
2022-12-23T16:16:38.231Z,37.90
2022-12-23T16:19:07.143Z,41.42
2022-12-23T16:21:40.653Z,35.13
2022-12-23T16:24:09.077Z,36.55
2022-12-23T16:26:42.082Z,33.88
2022-12-23T16:29:11.417Z,33.53
2022-12-23T16:34:55.985Z,41.63
2022-12-23T16:37:23.779Z,39.67
2022-12-23T16:40:17.120Z,54.95
2022-12-23T16:42:43.718Z,47.25
2022-12-23T16:48:20.365Z,56.58
2022-12-23T16:50:49.177Z,43.35
2022-12-23T16:56:17.854Z,43.00
2022-12-23T16:58:46.238Z,45.65
2022-12-23T17:01:26.182Z,44.15
2022-12-23T17:03:54.059Z,38.28
2022-12-23T17:06:22.632Z,45.60
2022-12-23T17:08:50.943Z,51.08
2022-12-23T17:11:37.969Z,51.92
2022-12-23T17:14:15.217Z,49.60
2022-12-23T17:16:44.953Z,50.25
2022-12-23T17:19:12.391Z,51.05
2022-12-23T17:21:41.958Z,53.47
2022-12-23T17:24:25.507Z,54.70
2022-12-23T17:26:54.813Z,57.00
2022-12-23T17:29:56.526Z,51.47
2022-12-23T17:32:29.840Z,45.22
2022-12-23T17:35:25.391Z,49.08
2022-12-23T17:37:55.686Z,35.33
2022-12-23T17:45:26.215Z,37.17
2022-12-23T17:47:53.816Z,46.83
2022-12-23T17:50:22.637Z,43.17
2022-12-23T17:55:44.080Z,51.63
2022-12-23T17:58:12.005Z,50.10
2022-12-23T18:00:39.907Z,55.10
2022-12-23T18:03:22.661Z,59.15
2022-12-23T18:05:54.309Z,52.53
2022-12-23T18:08:27.728Z,54.63
2022-12-23T18:10:57.287Z,57.47
2022-12-23T18:13:27.733Z,54.90
2022-12-23T18:16:23.803Z,40.45
2022-12-23T18:22:16.476Z,52.20
2022-12-23T18:24:53.942Z,40.55
2022-12-23T18:30:18.361Z,47.95
2022-12-23T18:32:45.974Z,56.35
2022-12-23T18:35:28.771Z,51.45
2022-12-23T18:38:02.302Z,52.17
2022-12-23T18:40:32.944Z,62.88
2022-12-23T18:43:02.236Z,58.58
2022-12-23T18:45:38.976Z,57.47
2022-12-23T18:48:07.934Z,51.42
2022-12-23T18:50:38.008Z,59.25
2022-12-23T18:53:07.287Z,55.92
2022-12-23T18:58:33.817Z,53.85
2022-12-23T19:01:01.785Z,62.15
2022-12-23T19:03:53.833Z,67.47
2022-12-23T19:06:21.742Z,67.40
2022-12-23T19:09:22.437Z,74.55
2022-12-23T19:11:58.371Z,55.80
2022-12-23T19:14:25.807Z,52.00
2022-12-23T19:16:54.040Z,64.97
2022-12-23T19:19:27.032Z,65.05
2022-12-23T19:21:53.710Z,62.28
2022-12-23T19:24:21.743Z,50.70
2022-12-23T19:27:15.783Z,67.50
2022-12-23T19:32:35.770Z,64.38
2022-12-23T19:35:04.057Z,65.13
2022-12-23T19:37:55.789Z,71.85
2022-12-23T19:40:23.820Z,79.50
2022-12-23T19:42:51.751Z,66.43
2022-12-23T19:45:43.761Z,63.65
2022-12-23T19:48:11.705Z,58.05
2022-12-23T19:50:39.772Z,62.80
2022-12-23T19:53:08.054Z,63.70
2022-12-23T19:55:35.734Z,62.05
2022-12-23T19:58:03.806Z,52.28
2022-12-23T20:00:31.730Z,50.22
2022-12-23T20:03:03.860Z,51.53
2022-12-23T20:08:23.713Z,44.28
2022-12-23T20:11:07.703Z,48.58
2022-12-23T20:13:36.402Z,45.53
2022-12-23T20:16:10.706Z,52.25
2022-12-23T20:18:38.194Z,45.65
2022-12-23T20:21:06.915Z,50.95
2022-12-23T20:23:39.819Z,47.50
2022-12-23T20:26:07.866Z,44.22
2022-12-23T20:28:35.763Z,49.10
2022-12-23T20:31:09.749Z,42.92
2022-12-23T20:33:39.560Z,38.97
2022-12-23T20:39:00.465Z,44.83
2022-12-23T20:41:29.114Z,39.85
2022-12-23T20:44:32.407Z,34.40
2022-12-23T20:46:48.818Z,37.40
2022-12-23T20:49:15.702Z,35.97
2022-12-23T20:51:43.707Z,35.38
2022-12-23T20:54:11.801Z,36.10
2022-12-23T20:57:04.756Z,31.23
2022-12-23T20:59:31.817Z,27.33
2022-12-23T21:02:00.776Z,34.17
2022-12-23T21:04:27.805Z,40.30
2022-12-23T21:07:21.126Z,37.05
2022-12-23T21:09:47.767Z,34.47
2022-12-23T21:12:19.750Z,41.03
2022-12-23T21:14:51.702Z,37.42
2022-12-23T21:17:26.105Z,37.72
2022-12-23T21:22:51.306Z,37.22
2022-12-23T21:25:19.717Z,41.85
2022-12-23T21:27:47.764Z,38.95
2022-12-23T21:30:15.944Z,45.92
2022-12-23T21:32:43.751Z,35.20
2022-12-23T21:35:11.790Z,38.85
2022-12-23T21:37:39.933Z,38.15
2022-12-23T21:40:12.385Z,33.78
2022-12-23T21:42:39.734Z,39.67
2022-12-23T21:45:11.191Z,36.65
2022-12-23T21:47:39.745Z,31.67
2022-12-23T21:50:33.720Z,38.42
2022-12-23T21:55:58.732Z,25.08
2022-12-23T21:58:27.772Z,32.28
2022-12-23T22:00:55.739Z,22.98
2022-12-23T22:03:24.184Z,22.45
2022-12-23T22:05:51.705Z,22.00
2022-12-23T22:08:19.778Z,20.77
2022-12-23T22:10:49.144Z,26.88
2022-12-23T22:13:17.803Z,22.55
2022-12-23T22:15:49.817Z,23.65
2022-12-23T22:18:21.845Z,22.58
2022-12-23T22:20:54.802Z,24.67
2022-12-23T22:23:21.768Z,22.42
2022-12-23T22:25:59.448Z,20.42
2022-12-23T22:28:52.409Z,25.25
2022-12-23T22:31:27.157Z,22.25
2022-12-23T22:33:55.818Z,21.10
2022-12-23T22:36:23.843Z,27.48
2022-12-23T22:39:20.986Z,17.95
2022-12-23T22:41:51.097Z,21.42
2022-12-23T22:44:20.538Z,19.48
2022-12-23T22:46:48.397Z,27.17
2022-12-23T22:49:16.549Z,26.42
2022-12-23T22:51:44.487Z,20.05
2022-12-23T22:54:11.941Z,19.95
2022-12-23T22:56:39.854Z,22.63
2022-12-23T22:59:12.871Z,28.13
2022-12-23T23:01:39.831Z,18.58
2022-12-23T23:04:07.939Z,23.02
2022-12-23T23:06:38.759Z,23.15
2022-12-23T23:09:08.523Z,21.05
2022-12-23T23:11:36.068Z,28.85
2022-12-23T23:14:03.946Z,18.10
2022-12-23T23:16:32.048Z,23.48
2022-12-23T23:19:00.032Z,20.63
2022-12-23T23:21:27.796Z,21.93
2022-12-23T23:23:55.866Z,25.58
2022-12-23T23:26:27.460Z,28.17
2022-12-23T23:28:56.412Z,22.70
2022-12-23T23:34:12.969Z,19.05
2022-12-23T23:36:45.900Z,20.25
2022-12-23T23:39:14.211Z,26.98
2022-12-23T23:41:42.081Z,18.65
2022-12-23T23:49:53.844Z,16.85
2022-12-23T23:52:25.742Z,19.92
2022-12-23T23:54:53.732Z,22.38
2022-12-23T23:57:47.777Z,26.73
